createdAt,value
2017-07-29T00:00:35.049Z,27.60
2017-07-29T00:03:02.622Z,27.60
2017-07-29T00:05:30.174Z,27.60
2017-07-29T00:07:57.697Z,27.60
2017-07-29T00:10:25.271Z,27.60
2017-07-29T00:12:52.806Z,27.60
2017-07-29T00:15:20.353Z,27.60
2017-07-29T00:17:47.922Z,27.50
2017-07-29T00:20:15.455Z,27.50
2017-07-29T00:22:43.141Z,27.50
2017-07-29T00:25:10.714Z,27.50
2017-07-29T00:27:39.077Z,27.50
2017-07-29T00:30:06.631Z,27.50
2017-07-29T00:32:35.038Z,27.50
2017-07-29T00:35:02.574Z,27.50
2017-07-29T00:37:30.971Z,27.50
2017-07-29T00:39:58.542Z,27.50
2017-07-29T00:42:26.935Z,27.50
2017-07-29T00:44:54.473Z,27.50
2017-07-29T00:47:23.715Z,27.50
2017-07-29T00:49:51.292Z,27.50
2017-07-29T00:52:18.842Z,27.50
2017-07-29T00:54:48.341Z,27.50
2017-07-29T00:57:18.131Z,27.50
2017-07-29T00:59:46.101Z,27.50
2017-07-29T01:02:14.129Z,27.50
2017-07-29T01:04:42.747Z,27.50
2017-07-29T01:07:11.259Z,27.50
2017-07-29T01:09:39.675Z,27.50
2017-07-29T01:12:07.817Z,27.50
2017-07-29T01:14:35.582Z,27.50
2017-07-29T01:17:04.618Z,27.50
2017-07-29T01:19:34.133Z,27.50
2017-07-29T01:22:03.687Z,27.50
2017-07-29T01:24:32.946Z,27.50
2017-07-29T01:27:00.470Z,27.50
2017-07-29T01:29:27.999Z,27.50
2017-07-29T01:31:55.554Z,27.50
2017-07-29T01:34:23.845Z,27.50
2017-07-29T01:36:51.377Z,27.50
2017-07-29T01:39:18.954Z,27.50
2017-07-29T01:41:47.262Z,27.50
2017-07-29T01:44:14.790Z,27.50
2017-07-29T01:46:42.386Z,27.50
2017-07-29T01:49:10.778Z,27.40
2017-07-29T01:51:38.342Z,27.40
2017-07-29T01:54:05.934Z,27.40
2017-07-29T01:56:33.477Z,27.30
2017-07-29T01:59:01.011Z,27.30
2017-07-29T02:01:28.623Z,27.30
2017-07-29T02:03:56.158Z,27.30
2017-07-29T02:06:23.694Z,27.30
2017-07-29T02:08:51.426Z,27.20
2017-07-29T02:11:18.959Z,27.20
2017-07-29T02:13:47.254Z,27.20
2017-07-29T02:16:14.809Z,27.20
2017-07-29T02:18:42.339Z,27.30
2017-07-29T02:21:16.778Z,27.30
2017-07-29T02:23:45.294Z,27.30
2017-07-29T02:26:12.820Z,27.20
2017-07-29T02:28:40.350Z,27.30
2017-07-29T02:31:07.918Z,27.20
2017-07-29T02:33:36.024Z,27.20
2017-07-29T02:36:03.555Z,27.20
2017-07-29T02:38:31.114Z,27.20
2017-07-29T02:40:58.642Z,27.20
2017-07-29T02:43:26.420Z,27.20
2017-07-29T02:45:54.370Z,27.30
2017-07-29T02:48:21.906Z,27.30
2017-07-29T02:50:49.439Z,27.30
2017-07-29T02:53:16.999Z,27.30
2017-07-29T02:55:44.899Z,27.30
2017-07-29T02:58:12.453Z,27.30
2017-07-29T03:00:40.066Z,27.30
2017-07-29T03:03:07.651Z,27.30
2017-07-29T03:05:35.214Z,27.30
2017-07-29T03:08:02.804Z,27.30
2017-07-29T03:10:31.185Z,27.40
2017-07-29T03:12:58.766Z,27.40
2017-07-29T03:15:27.190Z,27.40
2017-07-29T03:17:54.746Z,27.40
2017-07-29T03:20:23.057Z,27.40
2017-07-29T03:22:50.642Z,27.40
2017-07-29T03:25:19.023Z,27.40
2017-07-29T03:27:46.582Z,27.40
2017-07-29T03:30:14.978Z,27.40
2017-07-29T03:32:43.337Z,27.40
2017-07-29T03:35:10.899Z,27.30
2017-07-29T03:37:38.666Z,27.40
2017-07-29T03:40:06.807Z,27.40
2017-07-29T03:42:34.395Z,27.40
2017-07-29T03:45:02.782Z,27.40
2017-07-29T03:47:30.338Z,27.40
2017-07-29T03:49:57.895Z,27.40
2017-07-29T03:52:25.485Z,27.40
2017-07-29T03:54:53.041Z,27.40
2017-07-29T03:57:20.638Z,27.40
2017-07-29T03:59:48.274Z,27.40
2017-07-29T04:02:15.863Z,27.40
2017-07-29T04:04:43.451Z,27.40
2017-07-29T04:07:11.726Z,27.40
2017-07-29T04:09:39.318Z,27.40
2017-07-29T04:12:06.929Z,27.40
2017-07-29T04:14:34.542Z,27.40
2017-07-29T04:17:02.174Z,27.40
2017-07-29T04:19:29.734Z,27.40
2017-07-29T04:21:57.330Z,27.40
2017-07-29T04:24:24.922Z,27.40
2017-07-29T04:26:52.485Z,27.40
2017-07-29T04:29:20.098Z,27.40
2017-07-29T04:31:48.482Z,27.40
2017-07-29T04:34:16.066Z,27.40
2017-07-29T04:36:43.686Z,27.40
2017-07-29T04:39:11.270Z,27.40
2017-07-29T04:41:38.926Z,27.40
2017-07-29T04:44:06.557Z,27.40
2017-07-29T04:46:34.117Z,27.30
2017-07-29T04:49:02.374Z,27.30
2017-07-29T04:51:29.962Z,27.30
2017-07-29T04:53:57.683Z,27.30
2017-07-29T04:56:25.306Z,27.30
2017-07-29T04:58:52.935Z,27.40
2017-07-29T05:01:21.041Z,27.40
2017-07-29T05:03:48.628Z,27.30
2017-07-29T05:06:16.276Z,27.30
2017-07-29T05:08:43.859Z,27.40
2017-07-29T05:11:11.446Z,27.40
2017-07-29T05:13:39.034Z,27.40
2017-07-29T05:16:07.482Z,27.40
2017-07-29T05:18:35.062Z,27.40
2017-07-29T05:21:02.664Z,27.40
2017-07-29T05:23:30.318Z,27.40
2017-07-29T05:25:58.662Z,27.40
2017-07-29T05:28:26.284Z,27.40
2017-07-29T05:30:54.197Z,27.40
2017-07-29T05:33:21.790Z,27.40
2017-07-29T05:35:49.378Z,27.40
2017-07-29T05:38:18.046Z,27.40
2017-07-29T05:40:45.614Z,27.40
2017-07-29T05:43:14.047Z,27.40
2017-07-29T05:45:41.610Z,27.40
2017-07-29T05:48:09.745Z,27.40
2017-07-29T05:50:37.326Z,27.50
2017-07-29T05:53:04.890Z,27.40
2017-07-29T05:55:36.860Z,27.50
2017-07-29T05:58:04.534Z,27.40
2017-07-29T06:00:33.349Z,27.50
2017-07-29T06:03:02.867Z,27.50
2017-07-29T06:05:30.834Z,27.50
2017-07-29T06:07:58.398Z,27.50
2017-07-29T06:10:26.206Z,27.50
2017-07-29T06:12:53.807Z,27.50
2017-07-29T06:15:21.394Z,27.50
2017-07-29T06:17:48.962Z,27.50
2017-07-29T06:20:16.554Z,27.50
2017-07-29T06:22:44.113Z,27.50
2017-07-29T06:25:11.673Z,27.50
2017-07-29T06:27:39.278Z,27.50
2017-07-29T06:30:06.867Z,27.50
2017-07-29T06:32:34.466Z,27.50
2017-07-29T06:35:02.075Z,27.40
2017-07-29T06:37:29.634Z,27.40
2017-07-29T06:39:57.220Z,27.40
2017-07-29T06:42:24.842Z,27.40
2017-07-29T06:44:52.426Z,27.40
2017-07-29T06:47:20.018Z,27.40
2017-07-29T06:49:48.338Z,27.40
2017-07-29T06:52:15.922Z,27.40
2017-07-29T06:54:43.486Z,27.40
2017-07-29T06:57:11.083Z,27.40
2017-07-29T06:59:38.674Z,27.40
2017-07-29T07:02:06.259Z,27.40
2017-07-29T07:04:33.975Z,27.50
2017-07-29T07:07:01.558Z,27.50
2017-07-29T07:09:29.122Z,27.40
2017-07-29T07:11:56.974Z,27.50
2017-07-29T07:14:24.545Z,27.50
2017-07-29T07:16:52.114Z,27.50
2017-07-29T07:19:19.735Z,27.50
2017-07-29T07:21:47.296Z,27.50
2017-07-29T07:24:14.878Z,27.50
2017-07-29T07:26:42.502Z,27.50
2017-07-29T07:29:10.666Z,27.50
2017-07-29T07:31:38.255Z,27.50
2017-07-29T07:34:05.845Z,27.50
2017-07-29T07:36:33.434Z,27.50
2017-07-29T07:39:01.002Z,27.60
2017-07-29T07:41:28.587Z,27.60
2017-07-29T07:43:56.179Z,27.60
2017-07-29T07:46:23.790Z,27.60
2017-07-29T07:48:51.448Z,27.60
2017-07-29T07:51:19.034Z,27.60
2017-07-29T07:53:46.650Z,27.60
2017-07-29T07:56:14.318Z,27.60
2017-07-29T07:58:41.882Z,27.60
2017-07-29T08:01:09.446Z,27.60
2017-07-29T08:03:37.373Z,27.60
2017-07-29T08:06:04.954Z,27.60
2017-07-29T08:08:32.524Z,27.60
2017-07-29T08:11:00.950Z,27.60
2017-07-29T08:13:28.514Z,27.60
2017-07-29T08:15:56.076Z,27.60
2017-07-29T08:18:23.697Z,27.60
2017-07-29T08:20:51.291Z,27.60
2017-07-29T08:23:18.855Z,27.60
2017-07-29T08:25:46.469Z,27.60
2017-07-29T08:28:14.038Z,27.60
2017-07-29T08:30:41.635Z,27.60
2017-07-29T08:33:09.238Z,27.60
2017-07-29T08:35:36.823Z,27.60
2017-07-29T08:38:04.418Z,27.60
2017-07-29T08:40:32.326Z,27.60
2017-07-29T08:42:59.914Z,27.60
2017-07-29T08:45:27.506Z,27.60
2017-07-29T08:47:55.282Z,27.60
2017-07-29T08:50:22.846Z,27.60
2017-07-29T08:52:50.435Z,27.60
2017-07-29T08:55:18.047Z,27.60
2017-07-29T08:57:45.633Z,27.60
2017-07-29T09:00:13.223Z,27.60
2017-07-29T09:02:40.814Z,27.60
2017-07-29T09:05:08.397Z,27.60
2017-07-29T09:07:35.970Z,27.60
2017-07-29T09:10:03.594Z,27.60
2017-07-29T09:12:31.158Z,27.60
2017-07-29T09:14:58.718Z,27.60
2017-07-29T09:17:26.302Z,27.60
2017-07-29T09:19:53.890Z,27.60
2017-07-29T09:22:22.306Z,27.60
2017-07-29T09:24:49.918Z,27.60
2017-07-29T09:27:17.482Z,27.60
2017-07-29T09:29:45.043Z,27.60
2017-07-29T09:32:12.658Z,27.60
2017-07-29T09:34:40.246Z,27.60
2017-07-29T09:37:07.819Z,27.60
2017-07-29T09:39:36.406Z,27.60
2017-07-29T09:42:04.010Z,27.60
2017-07-29T09:44:31.599Z,27.60
2017-07-29T09:46:59.202Z,27.60
2017-07-29T09:49:26.786Z,27.60
2017-07-29T09:51:54.375Z,27.60
2017-07-29T09:54:22.010Z,27.60
2017-07-29T09:56:49.566Z,27.60
2017-07-29T09:59:17.150Z,27.60
2017-07-29T10:01:44.737Z,27.60
2017-07-29T10:04:13.062Z,27.60
2017-07-29T10:06:40.621Z,27.60
2017-07-29T10:09:08.926Z,27.60
2017-07-29T10:11:36.490Z,27.60
2017-07-29T10:14:04.086Z,27.60
2017-07-29T10:16:32.326Z,27.60
2017-07-29T10:18:59.910Z,27.60
2017-07-29T10:21:27.479Z,27.60
2017-07-29T10:23:55.890Z,27.60
2017-07-29T10:26:23.454Z,27.60
2017-07-29T10:28:51.070Z,27.60
2017-07-29T10:31:19.099Z,27.60
2017-07-29T10:33:46.705Z,27.60
2017-07-29T10:36:14.298Z,27.60
2017-07-29T10:38:41.914Z,27.60
2017-07-29T10:41:09.499Z,27.60
2017-07-29T10:43:38.558Z,27.60
2017-07-29T10:46:06.162Z,27.60
2017-07-29T10:48:34.109Z,27.60
2017-07-29T10:51:01.696Z,27.60
2017-07-29T10:53:29.324Z,27.60
2017-07-29T10:55:56.898Z,27.60
2017-07-29T10:58:24.489Z,27.60
2017-07-29T11:00:52.743Z,27.60
2017-07-29T11:03:20.327Z,27.60
2017-07-29T11:05:47.932Z,27.60
2017-07-29T11:08:15.558Z,27.60
2017-07-29T11:10:43.206Z,27.60
2017-07-29T11:13:10.818Z,27.60
2017-07-29T11:15:38.459Z,27.60
2017-07-29T11:18:06.054Z,27.60
2017-07-29T11:20:33.675Z,27.60
2017-07-29T11:23:01.510Z,27.60
2017-07-29T11:25:36.549Z,27.60
2017-07-29T11:28:15.731Z,27.60
2017-07-29T11:30:49.616Z,27.70
2017-07-29T11:33:26.255Z,27.60
2017-07-29T11:35:58.317Z,27.60
2017-07-29T11:38:26.212Z,27.70
2017-07-29T11:40:57.315Z,27.70
2017-07-29T11:43:24.925Z,27.70
2017-07-29T11:46:00.433Z,27.70
2017-07-29T11:48:38.066Z,27.80
2017-07-29T11:51:09.986Z,27.90
2017-07-29T11:53:37.553Z,27.90
2017-07-29T11:56:05.118Z,27.90
2017-07-29T11:58:33.168Z,27.90
2017-07-29T12:01:04.028Z,27.90
2017-07-29T12:03:31.610Z,27.90
2017-07-29T12:05:59.207Z,27.90
2017-07-29T12:08:27.346Z,27.90
2017-07-29T12:10:56.888Z,27.90
2017-07-29T12:13:24.518Z,27.90
2017-07-29T12:15:52.086Z,28.00
2017-07-29T12:18:47.130Z,28.00
2017-07-29T12:21:14.702Z,28.00
2017-07-29T12:23:42.299Z,28.00
2017-07-29T12:28:50.324Z,28.00
2017-07-29T12:31:19.112Z,28.00
2017-07-29T12:33:47.303Z,28.00
2017-07-29T12:36:14.869Z,28.00
2017-07-29T12:38:42.465Z,28.00
2017-07-29T12:41:10.034Z,28.00
2017-07-29T12:43:37.631Z,28.10
2017-07-29T12:46:05.514Z,28.10
2017-07-29T12:48:37.978Z,28.20
2017-07-29T12:51:05.578Z,28.20
2017-07-29T12:53:33.217Z,28.20
2017-07-29T12:56:00.834Z,28.20
2017-07-29T12:58:28.407Z,28.20
2017-07-29T13:00:56.778Z,28.20
2017-07-29T13:03:25.308Z,28.20
2017-07-29T13:05:52.996Z,28.40
2017-07-29T13:08:21.757Z,28.40
2017-07-29T13:10:50.294Z,28.30
2017-07-29T13:13:17.904Z,28.30
2017-07-29T13:15:46.133Z,28.30
2017-07-29T13:18:15.722Z,28.30
2017-07-29T13:20:43.343Z,28.30
2017-07-29T13:23:11.907Z,28.30
2017-07-29T13:25:39.527Z,28.30
2017-07-29T13:28:07.155Z,28.30
2017-07-29T13:30:34.862Z,28.30
2017-07-29T13:33:03.551Z,28.30
2017-07-29T13:35:34.239Z,28.20
2017-07-29T13:38:04.114Z,28.20
2017-07-29T13:40:33.356Z,28.20
2017-07-29T13:43:02.276Z,28.20
2017-07-29T13:45:33.238Z,28.20
2017-07-29T13:48:03.425Z,28.20
2017-07-29T13:50:33.206Z,28.20
2017-07-29T13:53:03.682Z,28.20
2017-07-29T13:55:31.343Z,28.20
2017-07-29T13:57:59.692Z,28.20
2017-07-29T14:00:27.412Z,28.20
2017-07-29T14:02:56.121Z,28.20
2017-07-29T14:05:24.042Z,28.20
2017-07-29T14:07:52.899Z,28.10
2017-07-29T14:10:22.110Z,28.10
2017-07-29T14:12:49.726Z,28.10
2017-07-29T14:15:18.031Z,28.20
2017-07-29T14:17:45.634Z,28.10
2017-07-29T14:20:14.063Z,28.20
2017-07-29T14:22:42.449Z,28.10
2017-07-29T14:25:10.075Z,28.20
2017-07-29T14:27:38.880Z,28.10
2017-07-29T14:30:06.574Z,28.10
2017-07-29T14:32:34.167Z,28.10
2017-07-29T14:35:02.455Z,28.10
2017-07-29T14:37:30.086Z,28.10
2017-07-29T14:39:58.656Z,28.10
2017-07-29T14:42:26.299Z,28.10
2017-07-29T14:44:54.619Z,28.10
2017-07-29T14:47:22.582Z,28.10
2017-07-29T14:49:50.643Z,28.20
2017-07-29T14:52:18.312Z,28.10
2017-07-29T14:54:45.902Z,28.10
2017-07-29T14:57:13.587Z,28.10
2017-07-29T14:59:41.283Z,28.10
2017-07-29T15:02:08.867Z,28.10
2017-07-29T15:04:37.031Z,28.20
2017-07-29T15:07:04.860Z,28.20
2017-07-29T15:09:32.450Z,28.20
2017-07-29T15:12:00.050Z,28.10
2017-07-29T15:14:27.695Z,28.20
2017-07-29T15:16:56.018Z,28.20
2017-07-29T15:19:23.642Z,28.20
2017-07-29T15:21:51.658Z,28.20
2017-07-29T15:24:19.258Z,28.20
2017-07-29T15:26:47.839Z,28.20
2017-07-29T15:29:16.075Z,28.20
2017-07-29T15:31:44.015Z,28.20
2017-07-29T15:34:11.621Z,28.20
2017-07-29T15:36:40.785Z,28.20
2017-07-29T15:39:09.560Z,28.20
2017-07-29T15:41:37.444Z,28.20
2017-07-29T15:44:05.363Z,28.20
2017-07-29T15:49:26.924Z,28.30
2017-07-29T15:51:55.591Z,28.30
2017-07-29T15:54:23.845Z,28.30
2017-07-29T15:56:51.454Z,28.30
2017-07-29T15:59:20.486Z,28.40
2017-07-29T16:01:48.438Z,28.40
2017-07-29T16:04:16.572Z,28.30
2017-07-29T16:06:44.150Z,28.30
2017-07-29T16:09:12.841Z,28.30
2017-07-29T16:11:41.291Z,28.30
2017-07-29T16:14:09.425Z,28.30
2017-07-29T16:16:37.019Z,28.30
2017-07-29T16:19:06.218Z,28.30
2017-07-29T16:21:33.811Z,28.30
2017-07-29T16:24:01.378Z,28.30
2017-07-29T16:26:29.008Z,28.30
2017-07-29T16:28:56.611Z,28.30
2017-07-29T16:31:24.178Z,28.40
2017-07-29T16:33:51.803Z,28.30
2017-07-29T16:36:19.416Z,28.40
2017-07-29T16:38:46.990Z,28.40
2017-07-29T16:41:14.620Z,28.40
2017-07-29T16:43:42.194Z,28.40
2017-07-29T16:46:09.750Z,28.40
2017-07-29T16:48:37.375Z,28.40
2017-07-29T16:51:04.974Z,28.40
2017-07-29T16:53:32.542Z,28.40
2017-07-29T16:56:00.158Z,28.40
2017-07-29T16:58:27.751Z,28.40
2017-07-29T17:00:55.354Z,28.40
2017-07-29T17:03:22.950Z,28.40
2017-07-29T17:05:50.510Z,28.40
2017-07-29T17:08:18.098Z,28.40
2017-07-29T17:10:45.746Z,28.50
2017-07-29T17:13:13.356Z,28.40
2017-07-29T17:15:40.952Z,28.40
2017-07-29T17:18:08.542Z,28.40
2017-07-29T17:20:36.105Z,28.40
2017-07-29T17:23:03.700Z,28.40
2017-07-29T17:25:31.613Z,28.40
2017-07-29T17:27:59.208Z,28.40
2017-07-29T17:30:26.798Z,28.40
2017-07-29T17:32:55.030Z,28.40
2017-07-29T17:35:22.678Z,28.40
2017-07-29T17:37:51.115Z,28.40
2017-07-29T17:40:19.622Z,28.40
2017-07-29T17:42:47.261Z,28.40
2017-07-29T17:45:15.575Z,28.50
2017-07-29T17:47:43.955Z,28.50
2017-07-29T17:50:12.414Z,28.40
2017-07-29T17:52:40.645Z,28.50
2017-07-29T17:55:09.513Z,28.50
2017-07-29T17:57:37.853Z,28.40
2017-07-29T18:00:05.482Z,28.40
2017-07-29T18:02:33.391Z,28.50
2017-07-29T18:05:01.359Z,28.50
2017-07-29T18:07:28.959Z,28.50
2017-07-29T18:09:57.305Z,28.50
2017-07-29T18:12:25.058Z,28.50
2017-07-29T18:14:53.279Z,28.50
2017-07-29T18:17:20.955Z,28.50
2017-07-29T18:19:49.827Z,28.50
2017-07-29T18:22:17.692Z,28.50
2017-07-29T18:24:45.930Z,28.50
2017-07-29T18:27:13.616Z,28.50
2017-07-29T18:29:42.088Z,28.50
2017-07-29T18:32:11.490Z,28.50
2017-07-29T18:34:39.074Z,28.50
2017-07-29T18:37:06.654Z,28.50
2017-07-29T18:39:34.265Z,28.50
2017-07-29T18:42:01.854Z,28.50
2017-07-29T18:44:30.166Z,28.50
2017-07-29T18:46:57.795Z,28.50
2017-07-29T18:49:25.362Z,28.50
2017-07-29T18:51:52.968Z,28.50
2017-07-29T18:54:20.570Z,28.50
2017-07-29T18:56:48.172Z,28.50
2017-07-29T18:59:15.750Z,28.50
2017-07-29T19:01:43.348Z,28.50
2017-07-29T19:04:11.504Z,28.50
2017-07-29T19:06:39.073Z,28.50
2017-07-29T19:09:06.720Z,28.50
2017-07-29T19:11:34.367Z,28.50
2017-07-29T19:14:01.990Z,28.50
2017-07-29T19:16:29.715Z,28.50
2017-07-29T19:18:57.314Z,28.50
2017-07-29T19:21:24.911Z,28.50
2017-07-29T19:23:52.511Z,28.50
2017-07-29T19:26:20.089Z,28.50
2017-07-29T19:28:47.685Z,28.50
2017-07-29T19:31:15.324Z,28.50
2017-07-29T19:33:43.782Z,28.50
2017-07-29T19:36:11.383Z,28.50
2017-07-29T19:38:39.014Z,28.50
2017-07-29T19:41:06.620Z,28.50
2017-07-29T19:43:34.230Z,28.50
2017-07-29T19:46:02.179Z,28.50
2017-07-29T19:48:29.750Z,28.50
2017-07-29T19:50:57.352Z,28.50
2017-07-29T19:53:26.010Z,28.50
2017-07-29T19:55:53.608Z,28.50
2017-07-29T19:58:21.629Z,28.50
2017-07-29T20:00:50.859Z,28.50
2017-07-29T20:03:23.534Z,28.50
2017-07-29T20:05:51.137Z,28.50
2017-07-29T20:08:19.564Z,28.50
2017-07-29T20:10:47.954Z,28.50
2017-07-29T20:13:18.423Z,28.50
2017-07-29T20:15:46.295Z,28.50
2017-07-29T20:18:14.200Z,28.50
2017-07-29T20:20:42.279Z,28.50
2017-07-29T20:23:09.882Z,28.50
2017-07-29T20:25:37.446Z,28.50
2017-07-29T20:28:05.010Z,28.50
2017-07-29T20:30:32.625Z,28.50
2017-07-29T20:33:00.391Z,28.50
2017-07-29T20:35:28.007Z,28.40
2017-07-29T20:37:57.042Z,28.40
2017-07-29T20:40:24.675Z,28.50
2017-07-29T20:42:52.250Z,28.40
2017-07-29T20:45:20.226Z,28.40
2017-07-29T20:47:47.806Z,28.40
2017-07-29T20:50:16.212Z,28.40
2017-07-29T20:52:44.772Z,28.40
2017-07-29T20:55:13.229Z,28.40
2017-07-29T20:57:41.178Z,28.50
2017-07-29T21:00:08.851Z,28.40
2017-07-29T21:02:36.450Z,28.40
2017-07-29T21:05:04.336Z,28.40
2017-07-29T21:07:36.304Z,28.50
2017-07-29T21:10:04.674Z,28.40
2017-07-29T21:12:32.808Z,28.50
2017-07-29T21:15:00.448Z,28.40
2017-07-29T21:17:28.023Z,28.40
2017-07-29T21:19:55.590Z,28.40
2017-07-29T21:22:23.186Z,28.40
2017-07-29T21:24:50.791Z,28.40
2017-07-29T21:27:18.378Z,28.40
2017-07-29T21:29:46.220Z,28.40
2017-07-29T21:32:13.864Z,28.40
2017-07-29T21:34:42.048Z,28.40
2017-07-29T21:37:09.697Z,28.40
2017-07-29T21:39:37.319Z,28.40
2017-07-29T21:42:04.932Z,28.50
2017-07-29T21:44:33.046Z,28.40
2017-07-29T21:47:00.630Z,28.40
2017-07-29T21:49:28.535Z,28.40
2017-07-29T21:51:56.134Z,28.40
2017-07-29T21:54:23.714Z,28.40
2017-07-29T21:56:51.302Z,28.40
2017-07-29T21:59:18.897Z,28.40
2017-07-29T22:01:47.016Z,28.40
2017-07-29T22:04:14.603Z,28.40
2017-07-29T22:06:42.210Z,28.40
2017-07-29T22:09:09.798Z,28.30
2017-07-29T22:11:37.378Z,28.20
2017-07-29T22:14:05.014Z,28.20
2017-07-29T22:16:33.142Z,28.10
2017-07-29T22:19:00.729Z,28.10
2017-07-29T22:21:29.111Z,28.10
2017-07-29T22:23:56.702Z,28.10
2017-07-29T22:26:24.294Z,28.00
2017-07-29T22:28:51.925Z,28.00
2017-07-29T22:31:23.862Z,27.90
2017-07-29T22:33:51.457Z,27.90
2017-07-29T22:36:19.415Z,28.00
2017-07-29T22:38:46.994Z,28.10
2017-07-29T22:41:14.632Z,28.10
2017-07-29T22:43:43.848Z,28.10
2017-07-29T22:46:12.332Z,28.10
2017-07-29T22:48:40.296Z,28.10
2017-07-29T22:51:07.906Z,28.10
2017-07-29T22:53:36.283Z,28.10
2017-07-29T22:56:04.055Z,28.10
2017-07-29T22:58:31.729Z,28.00
2017-07-29T23:00:59.332Z,28.00
2017-07-29T23:03:26.895Z,27.90
2017-07-29T23:05:55.262Z,27.90
2017-07-29T23:08:24.026Z,27.90
2017-07-29T23:10:51.583Z,27.90
2017-07-29T23:13:19.794Z,27.90
2017-07-29T23:15:47.404Z,27.90
2017-07-29T23:18:14.967Z,27.90
2017-07-29T23:20:42.592Z,27.90
2017-07-29T23:23:10.733Z,27.90
2017-07-29T23:25:38.318Z,27.80
2017-07-29T23:28:07.376Z,27.80
2017-07-29T23:30:34.990Z,27.80
2017-07-29T23:33:04.620Z,27.80
2017-07-29T23:35:32.970Z,27.80
2017-07-29T23:38:00.538Z,27.80
2017-07-29T23:40:28.118Z,27.90
2017-07-29T23:42:56.166Z,27.90
2017-07-29T23:45:23.750Z,28.00
2017-07-29T23:47:51.306Z,28.00
2017-07-29T23:50:18.912Z,28.00
2017-07-29T23:52:46.469Z,28.00
2017-07-29T23:55:14.034Z,28.00
2017-07-29T23:57:41.653Z,28.00
